Station Historical Data
Daily Summary for April 30, 2017 Units:  English    Metric   Both
« Previous Day
Next Day »
Daily Weekly Monthly Yearly Custom
  High: Low: Average:
Temperature: 82.2 °F 65.6 °F 73.2 °F
Dew Point: 68.6 °F 62.9 °F 65 °F
Humidity: 91% 54% 77%
Wind Speed: 1.0mph 0.0mph 0.1mph
Wind Gust: 7.0mph - -
Wind- - WNW
Pressure: 30.13 in 29.97 in -
Precipitation: 0.07 in    
Historical Graphs
 
 
Tabular Data for April 30, 2017
Time Temperature Dew Point Pressure Wind Wind Speed Wind Gust Humidity Rainfall Rate (Hourly) solar Conditions
00:00 73.8 °F 66.5 °F 30.08 in Calm     78% 0.00 in WeatherDisplay:10.37 W/m2 SCT
00:15 73.4 °F 66.1 °F 30.08 in Calm     78% 0.00 in WeatherDisplay:10.37 W/m2 SCT
00:30 73.1 °F 65.5 °F 30.07 in Calm     77% 0.00 in WeatherDisplay:10.37 W/m2 SCT
00:45 72.8 °F 65.5 °F 30.07 in Calm     78% 0.00 in WeatherDisplay:10.37 W/m2 SCT
01:00 72.5 °F 65.3 °F 30.07 in Calm     78% 0.00 in WeatherDisplay:10.37 W/m2 SCT
01:15 72.1 °F 64.9 °F 30.06 in Calm     78% 0.00 in WeatherDisplay:10.37 W/m2 SCT
01:30 71.6 °F 65.1 °F 30.06 in Calm     80% 0.00 in WeatherDisplay:10.37 W/m2 SCT
01:45 71.2 °F 65.1 °F 30.06 in Calm     81% 0.00 in WeatherDisplay:10.37 W/m2 SCT
02:00 70.8 °F 65.0 °F 30.06 in Calm     82% 0.00 in WeatherDisplay:10.37 W/m2 SCT
02:15 70.3 °F 64.9 °F 30.06 in Calm     83% 0.00 in WeatherDisplay:10.37 W/m2 SCT
02:30 70.2 °F 64.8 °F 30.06 in Calm     83% 0.00 in WeatherDisplay:10.37 W/m2 SCT
02:45 69.9 °F 64.5 °F 30.06 in Calm     83% 0.00 in WeatherDisplay:10.37 W/m2 SCT
03:00 69.9 °F 64.8 °F 30.06 in Calm     84% 0.00 in WeatherDisplay:10.37 W/m2 SCT
03:15 70.3 °F 65.3 °F 30.06 in Calm   1.0 mph 84% 0.00 in WeatherDisplay:10.37 W/m2 SCT
03:30 69.8 °F 64.7 °F 30.05 in Calm     84% 0.00 in WeatherDisplay:10.37 W/m2 SCT
03:45 69.8 °F 64.7 °F 30.05 in Calm     84% 0.00 in WeatherDisplay:10.37 W/m2 SCT
04:00 69.8 °F 64.7 °F 30.05 in Calm     84% 0.00 in WeatherDisplay:10.37 W/m2 SCT
04:15 69.8 °F 64.7 °F 30.05 in Calm     84% 0.00 in WeatherDisplay:10.37 W/m2 SCT
04:30 69.8 °F 64.7 °F 30.06 in Calm     84% 0.00 in WeatherDisplay:10.37 W/m2 SCT
04:45 69.8 °F 64.7 °F 30.05 in Calm     84% 0.00 in WeatherDisplay:10.37 W/m2 SCT
05:00 69.8 °F 64.7 °F 30.04 in Calm     84% 0.00 in WeatherDisplay:10.37 W/m2 SCT
05:15 69.8 °F 64.7 °F 30.03 in Calm     84% 0.00 in WeatherDisplay:10.37 W/m2 SCT
05:30 69.8 °F 64.7 °F 30.03 in Calm     84% 0.00 in WeatherDisplay:10.37 W/m2 SCT
05:45 69.8 °F 64.7 °F 30.04 in Calm     84% 0.00 in WeatherDisplay:10.37 W/m2 SCT
06:00 69.8 °F 64.7 °F 30.05 in Calm     84% 0.00 in WeatherDisplay:10.37 W/m2 SCT
06:15 69.8 °F 64.7 °F 30.05 in Calm     84% 0.00 in WeatherDisplay:10.37 W/m2 SCT
06:30 69.8 °F 64.7 °F 30.05 in Calm     84% 0.00 in WeatherDisplay:10.37 W/m2 SCT
06:45 69.8 °F 64.7 °F 30.05 in Calm     84% 0.00 in WeatherDisplay:10.37 W/m2 SCT
07:00 69.8 °F 64.7 °F 30.05 in Calm     84% 0.00 in WeatherDisplay:10.37 W/m2 SCT
07:15 69.8 °F 64.7 °F 30.04 in Calm     84% 0.00 in WeatherDisplay:10.37 W/m2 SCT
07:30 69.8 °F 64.7 °F 30.03 in Calm     84% 0.00 in WeatherDisplay:10.37 W/m2 SCT
07:45 69.8 °F 64.7 °F 30.03 in Calm     84% 0.00 in WeatherDisplay:10.37 W/m2 SCT
08:00 69.8 °F 64.7 °F 30.03 in Calm     84% 0.00 in WeatherDisplay:10.37 W/m2 SCT
08:15 69.8 °F 64.7 °F 30.05 in Calm     84% 0.00 in WeatherDisplay:10.37 W/m2 SCT
08:30 69.8 °F 64.7 °F 30.05 in Calm     84% 0.00 in WeatherDisplay:10.37 W/m2 SCT
08:45 69.8 °F 64.7 °F 30.05 in Calm     84% 0.00 in WeatherDisplay:10.37 W/m2 SCT
09:00 69.8 °F 64.7 °F 30.07 in Calm     84% 0.00 in WeatherDisplay:10.37 W/m2 SCT
09:15 69.8 °F 64.7 °F 30.08 in Calm     84% 0.00 in WeatherDisplay:10.37 W/m2 SCT
09:30 69.8 °F 64.7 °F 30.08 in Calm     84% 0.00 in WeatherDisplay:10.37 W/m2 SCT
09:45 69.8 °F 64.7 °F 30.10 in Calm     84% 0.00 in WeatherDisplay:10.37 W/m2 SCT
10:00 69.8 °F 64.7 °F 30.10 in Calm     84% 0.00 in WeatherDisplay:10.37 W/m2 SCT
10:15 69.8 °F 64.7 °F 30.11 in Calm     84% 0.00 in WeatherDisplay:10.37 W/m2 SCT
10:30 69.8 °F 64.7 °F 30.10 in Calm     84% 0.00 in WeatherDisplay:10.37 W/m2 SCT
10:45 69.8 °F 64.7 °F 30.10 in Calm     84% 0.00 in WeatherDisplay:10.37 W/m2 SCT
11:00 69.8 °F 64.7 °F 30.09 in Calm     84% 0.00 in WeatherDisplay:10.37 W/m2 SCT
11:15 71.3 °F 66.6 °F 30.09 in Calm     85% 0.00 in WeatherDisplay:10.37 W/m2 SCT
11:30 71.6 °F 66.5 °F 30.09 in Calm   2.0 mph 84% 0.00 in WeatherDisplay:10.37 W/m2 SCT
11:45 72.0 °F 66.9 °F 30.10 in Calm   2.0 mph 84% 0.00 in WeatherDisplay:10.37 W/m2 SCT
12:00 72.4 °F 67.3 °F 30.11 in Calm   2.0 mph 84% 0.00 in WeatherDisplay:10.37 W/m2 SCT
12:15 72.3 °F 67.2 °F 30.13 in Calm   2.0 mph 84% 0.00 in WeatherDisplay:10.37 W/m2 SCT
12:30 71.8 °F 67.4 °F 30.11 in Calm   2.0 mph 86% 0.00 in WeatherDisplay:10.37 W/m2 SCT
12:45 72.4 °F 68.0 °F 30.09 in Calm   2.0 mph 86% 0.00 in WeatherDisplay:10.37 W/m2 SCT
13:00 74.8 °F 68.6 °F 30.09 in Calm   3.0 mph 81% 0.00 in WeatherDisplay:10.37 W/m2 SCT
13:15 77.0 °F 68.5 °F 30.07 in WNW 1.0 mph 2.0 mph 75% 0.00 in WeatherDisplay:10.37 W/m2 SCT
13:30 77.7 °F 68.3 °F 30.06 in WNW 1.0 mph 5.0 mph 73% 0.00 in WeatherDisplay:10.37 W/m2 SCT
13:45 78.8 °F 67.3 °F 30.06 in Calm   3.0 mph 68% 0.00 in WeatherDisplay:10.37 W/m2 SCT
14:00 80.1 °F 67.7 °F 30.05 in Calm   3.0 mph 66% 0.00 in WeatherDisplay:10.37 W/m2 SCT
14:15 80.6 °F 67.3 °F 30.06 in WNW 1.0 mph 3.0 mph 64% 0.00 in WeatherDisplay:10.37 W/m2 SCT
14:30 80.1 °F 65.9 °F 30.04 in NW 1.0 mph 7.0 mph 62% 0.00 in WeatherDisplay:10.37 W/m2 SCT
14:45 80.3 °F 66.6 °F 30.04 in Calm   5.0 mph 63% 0.00 in WeatherDisplay:10.37 W/m2 SCT
15:00 80.4 °F 66.2 °F 30.04 in Calm   3.0 mph 62% 0.00 in WeatherDisplay:10.37 W/m2 SCT
15:15 80.1 °F 65.9 °F 30.04 in Calm   3.0 mph 62% 0.00 in WeatherDisplay:10.37 W/m2 SCT
15:30 79.7 °F 66.0 °F 30.04 in Calm   2.0 mph 63% 0.00 in WeatherDisplay:10.37 W/m2 SCT
15:45 80.4 °F 65.7 °F 30.03 in NW 1.0 mph 2.0 mph 61% 0.00 in WeatherDisplay:10.37 W/m2 SCT
16:00 80.2 °F 66.0 °F 30.03 in Calm   2.0 mph 62% 0.00 in WeatherDisplay:10.37 W/m2 SCT
16:15 80.5 °F 65.3 °F 30.01 in Calm   3.0 mph 60% 0.00 in WeatherDisplay:10.37 W/m2 SCT
16:30 80.9 °F 65.7 °F 30.01 in Calm   3.0 mph 60% 0.00 in WeatherDisplay:10.37 W/m2 SCT
16:45 81.2 °F 65.5 °F 30.01 in Calm   3.0 mph 59% 0.00 in WeatherDisplay:10.37 W/m2 SCT
17:00 81.9 °F 63.6 °F 30.01 in Calm   2.0 mph 54% 0.00 in WeatherDisplay:10.37 W/m2 SCT
17:15 82.2 °F 64.9 °F 30.01 in Calm   2.0 mph 56% 0.00 in WeatherDisplay:10.37 W/m2 SCT
17:30 81.4 °F 63.7 °F 30.00 in Calm   5.0 mph 55% 0.00 in WeatherDisplay:10.37 W/m2 SCT
17:45 80.7 °F 64.1 °F 30.00 in Calm   1.0 mph 57% 0.00 in WeatherDisplay:10.37 W/m2 SCT
18:00 80.3 °F 63.7 °F 30.00 in Calm   1.0 mph 57% 0.00 in WeatherDisplay:10.37 W/m2 SCT
18:15 80.2 °F 64.1 °F 29.99 in Calm   1.0 mph 58% 0.00 in WeatherDisplay:10.37 W/m2 SCT
18:30 79.7 °F 64.6 °F 29.99 in Calm   2.0 mph 60% 0.00 in WeatherDisplay:10.37 W/m2 SCT
18:45 79.0 °F 63.9 °F 29.99 in Calm   1.0 mph 60% 0.00 in WeatherDisplay:10.37 W/m2 SCT
19:00 78.8 °F 63.7 °F 29.98 in Calm   2.0 mph 60% 0.00 in WeatherDisplay:10.37 W/m2 SCT
19:15 78.5 °F 63.5 °F 29.97 in Calm   1.0 mph 60% 0.00 in WeatherDisplay:10.37 W/m2 SCT
19:30 78.1 °F 63.6 °F 29.97 in Calm   2.0 mph 61% 0.00 in WeatherDisplay:10.37 W/m2 SCT
19:45 77.5 °F 63.9 °F 29.97 in Calm     63% 0.00 in WeatherDisplay:10.37 W/m2 SCT
20:00 76.9 °F 63.8 °F 29.97 in Calm     64% 0.00 in WeatherDisplay:10.37 W/m2 SCT
20:15 76.5 °F 63.9 °F 29.97 in Calm     65% 0.00 in WeatherDisplay:10.37 W/m2 SCT
20:30 76.2 °F 64.0 °F 29.98 in Calm     66% 0.00 in WeatherDisplay:10.37 W/m2 SCT
20:45 76.1 °F 64.3 °F 29.98 in Calm     67% 0.00 in WeatherDisplay:10.37 W/m2 SCT
21:00 75.8 °F 64.1 °F 29.99 in Calm     67% 0.00 in WeatherDisplay:10.37 W/m2 SCT
21:15 75.0 °F 63.3 °F 30.00 in Calm   5.0 mph 67% 0.00 in WeatherDisplay:10.37 W/m2 SCT
21:30 72.6 °F 64.6 °F 30.01 in Calm   2.0 mph 76% 0.03 in WeatherDisplay:10.37 W/m2 RA
21:45 69.2 °F 64.2 °F 30.00 in Calm   2.0 mph 84% 0.00 in WeatherDisplay:10.37 W/m2 SCT
22:00 67.9 °F 63.9 °F 30.02 in Calm   1.0 mph 87% 0.00 in WeatherDisplay:10.37 W/m2 SCT
22:15 67.1 °F 63.7 °F 30.00 in Calm   1.0 mph 89% 0.04 in WeatherDisplay:10.37 W/m2 SCT
22:30 66.6 °F 63.3 °F 30.00 in Calm   1.0 mph 89% 0.00 in WeatherDisplay:10.37 W/m2 SCT
22:45 66.2 °F 63.2 °F 30.00 in Calm     90% 0.00 in WeatherDisplay:10.37 W/m2 SCT
23:00 66.0 °F 63.0 °F 29.99 in Calm     90% 0.00 in WeatherDisplay:10.37 W/m2 SCT
23:15 66.0 °F 63.3 °F 29.99 in Calm     91% 0.00 in WeatherDisplay:10.37 W/m2 SCT
23:30 65.8 °F 63.1 °F 30.00 in Calm     91% 0.00 in WeatherDisplay:10.37 W/m2 SCT
23:45 65.6 °F 62.9 °F 30.00 in Calm     91% 0.00 in WeatherDisplay:10.37 W/m2 SCT
Piedmont Bend
Compliments of Weather Underground - 4 mb